createdAt,value
2019-02-27T00:00:25.087Z,11.68
2019-02-27T00:01:32.938Z,11.40
2019-02-27T00:02:38.383Z,11.12
2019-02-27T00:03:43.575Z,11.12
2019-02-27T00:04:49.067Z,11.50
2019-02-27T00:05:54.167Z,10.90
2019-02-27T00:06:59.272Z,10.20
2019-02-27T00:08:05.003Z,11.22
2019-02-27T00:09:11.477Z,12.18
2019-02-27T00:10:16.726Z,13.08
2019-02-27T00:11:21.881Z,12.45
2019-02-27T00:12:27.842Z,12.43
2019-02-27T00:13:33.522Z,12.15
2019-02-27T00:14:38.695Z,11.60
2019-02-27T00:15:44.427Z,10.48
2019-02-27T00:16:49.505Z,10.98
2019-02-27T00:17:54.653Z,10.93
2019-02-27T00:18:59.788Z,10.10
2019-02-27T00:20:05.444Z,9.35
2019-02-27T00:21:11.252Z,9.55
2019-02-27T00:22:17.717Z,9.93
2019-02-27T00:23:24.132Z,10.00
2019-02-27T00:24:30.522Z,9.88
2019-02-27T00:25:36.150Z,8.60
2019-02-27T00:26:43.079Z,9.15
2019-02-27T00:27:49.938Z,10.60
2019-02-27T00:28:56.135Z,10.35
2019-02-27T00:30:04.817Z,9.68
2019-02-27T00:31:11.255Z,9.88
2019-02-27T00:32:15.790Z,10.75
2019-02-27T00:33:25.198Z,10.98
2019-02-27T00:34:32.789Z,9.73
2019-02-27T00:35:38.820Z,9.68
2019-02-27T00:36:45.088Z,11.00
2019-02-27T00:37:52.044Z,9.70
2019-02-27T00:38:58.471Z,9.43
2019-02-27T00:40:05.717Z,9.63
2019-02-27T00:41:12.922Z,9.73
2019-02-27T00:42:20.659Z,10.00
2019-02-27T00:43:25.968Z,9.48
2019-02-27T00:44:34.733Z,8.83
2019-02-27T00:45:40.529Z,9.55
2019-02-27T00:46:46.439Z,8.98
2019-02-27T00:47:53.315Z,9.38
2019-02-27T00:48:59.845Z,10.70
2019-02-27T00:50:06.559Z,9.30
2019-02-27T00:51:12.785Z,10.58
2019-02-27T00:52:18.784Z,9.70
2019-02-27T00:53:25.111Z,9.28
2019-02-27T00:54:31.479Z,9.23
2019-02-27T00:55:39.315Z,9.28
2019-02-27T00:56:45.731Z,8.50
2019-02-27T00:57:53.903Z,9.45
2019-02-27T00:59:00.144Z,8.93
2019-02-27T01:00:07.967Z,9.35
2019-02-27T01:01:13.348Z,9.10
2019-02-27T01:02:20.292Z,9.60
2019-02-27T01:03:26.251Z,8.80
2019-02-27T01:04:34.932Z,9.08
2019-02-27T01:05:41.082Z,10.75
2019-02-27T01:06:47.611Z,8.63
2019-02-27T01:07:54.131Z,9.28
2019-02-27T01:08:59.671Z,8.65
2019-02-27T01:10:05.799Z,9.58
2019-02-27T01:11:11.055Z,9.35
2019-02-27T01:12:16.263Z,9.30
2019-02-27T01:13:21.537Z,9.20
2019-02-27T01:14:26.633Z,9.05
2019-02-27T01:15:31.820Z,9.05
2019-02-27T01:16:37.523Z,8.45
2019-02-27T01:17:42.733Z,9.35
2019-02-27T01:18:47.735Z,9.60
2019-02-27T01:19:53.592Z,9.50
2019-02-27T01:20:59.026Z,9.65
2019-02-27T01:22:04.164Z,9.83
2019-02-27T01:23:11.058Z,8.38
2019-02-27T01:24:17.562Z,8.40
2019-02-27T01:25:23.622Z,8.93
2019-02-27T01:26:30.815Z,10.45
2019-02-27T01:27:38.048Z,8.63
2019-02-27T01:28:45.496Z,8.68
2019-02-27T01:29:51.631Z,8.28
2019-02-27T01:30:56.026Z,8.63
2019-02-27T01:32:01.259Z,8.33
2019-02-27T01:33:06.522Z,8.98
2019-02-27T01:34:11.968Z,9.00
2019-02-27T01:35:18.805Z,8.90
2019-02-27T01:36:25.279Z,8.00
2019-02-27T01:37:31.694Z,8.73
2019-02-27T01:38:38.149Z,10.05
2019-02-27T01:39:44.231Z,8.80
2019-02-27T01:40:51.544Z,8.45
2019-02-27T01:41:57.890Z,9.10
2019-02-27T01:43:06.281Z,9.00
2019-02-27T01:44:11.105Z,9.50
2019-02-27T01:45:20.630Z,7.90
2019-02-27T01:46:25.188Z,8.25
2019-02-27T01:47:35.911Z,8.80
2019-02-27T01:48:42.735Z,10.93
2019-02-27T01:49:48.966Z,7.78
2019-02-27T01:50:54.950Z,9.03
2019-02-27T01:52:02.058Z,9.25
2019-02-27T01:53:08.092Z,8.35
2019-02-27T01:54:14.998Z,8.58
2019-02-27T01:55:22.421Z,8.00
2019-02-27T01:56:29.173Z,8.15
2019-02-27T01:57:36.820Z,9.05
2019-02-27T01:58:44.296Z,9.13
2019-02-27T01:59:50.550Z,8.35
2019-02-27T02:00:56.327Z,8.93
2019-02-27T02:02:03.496Z,8.88
2019-02-27T02:03:11.176Z,8.63
2019-02-27T02:04:20.062Z,9.10
2019-02-27T02:05:26.330Z,8.63
2019-02-27T02:06:32.463Z,8.10
2019-02-27T02:07:39.927Z,8.43
2019-02-27T02:08:48.009Z,9.48
2019-02-27T02:09:55.176Z,9.25
2019-02-27T02:11:01.448Z,9.58
2019-02-27T02:12:09.759Z,8.55
2019-02-27T02:13:21.705Z,9.25
2019-02-27T02:15:00.810Z,9.10
2019-02-27T02:16:27.676Z,8.55
2019-02-27T02:18:22.176Z,9.00
2019-02-27T02:19:54.176Z,8.18
2019-02-27T02:21:42.451Z,8.78
2019-02-27T02:23:14.176Z,8.80
2019-02-27T02:25:01.355Z,8.70
2019-02-27T02:26:35.047Z,9.90
2019-02-27T02:28:15.958Z,8.60
2019-02-27T02:29:52.957Z,8.50
2019-02-27T02:31:25.445Z,8.88
2019-02-27T02:32:52.025Z,9.33
2019-02-27T02:34:39.933Z,8.10
2019-02-27T02:36:26.996Z,8.08
2019-02-27T02:38:31.597Z,7.67
2019-02-27T02:40:16.331Z,7.75
2019-02-27T02:41:47.930Z,8.28
2019-02-27T02:43:45.225Z,8.73
2019-02-27T02:45:18.655Z,8.25
2019-02-27T02:46:59.687Z,7.33
2019-02-27T02:49:06.458Z,7.40
2019-02-27T02:50:56.044Z,8.78
2019-02-27T02:52:24.807Z,6.95
2019-02-27T02:54:00.353Z,8.70
2019-02-27T02:55:20.358Z,8.55
2019-02-27T02:57:01.507Z,8.70
2019-02-27T02:58:48.324Z,8.85
2019-02-27T02:59:59.381Z,8.10
2019-02-27T03:01:32.667Z,8.80
2019-02-27T03:03:06.206Z,10.13
2019-02-27T03:04:30.464Z,8.70
2019-02-27T03:05:58.541Z,7.75
2019-02-27T03:07:49.732Z,9.00
2019-02-27T03:09:15.295Z,8.98
2019-02-27T03:10:31.790Z,8.88
2019-02-27T03:12:20.273Z,9.30
2019-02-27T03:14:17.259Z,9.40
2019-02-27T03:16:07.732Z,8.83
2019-02-27T03:17:59.243Z,8.90
2019-02-27T03:19:33.020Z,9.20
2019-02-27T03:21:08.298Z,9.85
2019-02-27T03:22:40.471Z,8.28
2019-02-27T03:24:28.995Z,8.18
2019-02-27T03:26:07.772Z,9.20
2019-02-27T03:27:36.837Z,8.58
2019-02-27T03:29:17.425Z,8.08
2019-02-27T03:30:47.244Z,8.83
2019-02-27T03:32:06.579Z,8.20
2019-02-27T03:33:27.222Z,6.78
2019-02-27T03:35:03.601Z,8.75
2019-02-27T03:36:38.995Z,7.22
2019-02-27T03:38:09.707Z,7.20
2019-02-27T03:39:44.252Z,7.90
2019-02-27T03:41:27.935Z,7.90
2019-02-27T03:43:10.113Z,7.35
2019-02-27T03:45:03.810Z,8.20
2019-02-27T03:46:40.779Z,8.00
2019-02-27T03:47:58.029Z,7.70
2019-02-27T03:49:39.709Z,6.83
2019-02-27T03:50:58.303Z,7.75
2019-02-27T03:52:43.680Z,7.60
2019-02-27T03:54:23.922Z,8.20
2019-02-27T03:56:10.025Z,8.08
2019-02-27T03:57:40.881Z,7.75
2019-02-27T03:59:26.839Z,8.23
2019-02-27T04:01:12.326Z,7.42
2019-02-27T04:02:57.631Z,8.23
2019-02-27T04:04:45.695Z,8.05
2019-02-27T04:06:31.838Z,7.55
2019-02-27T04:08:30.387Z,7.62
2019-02-27T04:09:37.302Z,7.35
2019-02-27T04:10:42.432Z,7.62
2019-02-27T04:11:47.480Z,7.67
2019-02-27T04:12:52.588Z,7.42
2019-02-27T04:14:04.941Z,8.05
2019-02-27T04:15:06.322Z,6.90
2019-02-27T04:16:11.896Z,7.37
2019-02-27T04:17:16.909Z,7.35
2019-02-27T04:18:20.414Z,7.35
2019-02-27T04:19:25.679Z,7.55
2019-02-27T04:20:31.551Z,7.03
2019-02-27T04:21:36.875Z,7.60
2019-02-27T04:22:42.249Z,7.15
2019-02-27T04:23:49.256Z,7.33
2019-02-27T04:24:56.828Z,6.90
2019-02-27T04:26:05.422Z,8.28
2019-02-27T04:27:08.752Z,7.22
2019-02-27T04:28:14.409Z,8.13
2019-02-27T04:29:19.522Z,6.47
2019-02-27T04:30:24.977Z,7.35
2019-02-27T04:31:30.694Z,7.70
2019-02-27T04:32:36.516Z,6.85
2019-02-27T04:33:41.608Z,6.60
2019-02-27T04:34:46.656Z,7.25
2019-02-27T04:35:51.871Z,6.30
2019-02-27T04:36:57.127Z,6.97
2019-02-27T04:38:02.339Z,7.20
2019-02-27T04:39:07.539Z,7.55
2019-02-27T04:40:12.846Z,7.10
2019-02-27T04:41:18.712Z,7.20
2019-02-27T04:42:26.528Z,6.87
2019-02-27T04:43:32.268Z,7.22
2019-02-27T04:44:38.905Z,6.72
2019-02-27T04:45:46.895Z,7.72
2019-02-27T04:46:54.804Z,7.62
2019-02-27T04:47:58.535Z,7.28
2019-02-27T04:49:05.018Z,7.30
2019-02-27T04:50:11.267Z,7.12
2019-02-27T04:51:17.729Z,7.30
2019-02-27T04:52:24.401Z,7.35
2019-02-27T04:53:31.928Z,7.33
2019-02-27T04:54:41.294Z,7.42
2019-02-27T04:55:44.219Z,7.53
2019-02-27T04:56:49.550Z,9.53
2019-02-27T04:57:54.633Z,7.50
2019-02-27T04:59:00.108Z,7.03
2019-02-27T05:00:06.258Z,8.23
2019-02-27T05:01:15.087Z,8.18
2019-02-27T05:02:20.427Z,7.50
2019-02-27T05:03:25.769Z,8.55
2019-02-27T05:04:35.269Z,7.60
2019-02-27T05:05:41.391Z,8.13
2019-02-27T05:06:47.366Z,7.28
2019-02-27T05:07:54.275Z,6.70
2019-02-27T05:09:00.279Z,7.65
2019-02-27T05:10:07.318Z,6.60
2019-02-27T05:11:14.327Z,6.37
2019-02-27T05:12:19.851Z,6.60
2019-02-27T05:13:25.254Z,7.70
2019-02-27T05:14:30.299Z,6.70
2019-02-27T05:15:38.891Z,8.33
2019-02-27T05:16:46.997Z,6.72
2019-02-27T05:17:49.844Z,7.60
2019-02-27T05:18:55.340Z,6.50
2019-02-27T05:20:00.734Z,6.97
2019-02-27T05:21:06.040Z,6.05
2019-02-27T05:22:11.111Z,6.50
2019-02-27T05:23:16.516Z,7.15
2019-02-27T05:24:21.586Z,6.65
2019-02-27T05:25:27.023Z,6.65
2019-02-27T05:26:32.155Z,6.97
2019-02-27T05:27:38.068Z,6.87
2019-02-27T05:28:43.573Z,6.25
2019-02-27T05:29:48.548Z,6.70
2019-02-27T05:30:53.943Z,8.93
2019-02-27T05:31:59.116Z,7.40
2019-02-27T05:33:04.211Z,6.17
2019-02-27T05:34:12.416Z,6.97
2019-02-27T05:35:16.726Z,6.03
2019-02-27T05:36:22.431Z,6.55
2019-02-27T05:37:28.021Z,6.65
2019-02-27T05:38:33.177Z,7.03
2019-02-27T05:39:38.281Z,7.15
2019-02-27T05:40:43.415Z,6.25
2019-02-27T05:41:48.511Z,6.45
2019-02-27T05:42:53.770Z,5.65
2019-02-27T05:43:59.072Z,7.08
2019-02-27T05:45:04.696Z,6.78
2019-02-27T05:46:09.740Z,6.60
2019-02-27T05:47:15.131Z,8.60
2019-02-27T05:48:20.640Z,6.10
2019-02-27T05:49:27.401Z,6.85
2019-02-27T05:50:34.346Z,7.40
2019-02-27T05:51:39.656Z,6.87
2019-02-27T05:52:48.533Z,6.47
2019-02-27T05:53:51.613Z,7.65
2019-02-27T05:54:56.628Z,7.70
2019-02-27T05:56:02.147Z,7.72
2019-02-27T05:57:07.350Z,6.87
2019-02-27T05:58:12.523Z,6.60
2019-02-27T05:59:17.781Z,6.87
2019-02-27T06:00:23.312Z,6.45
2019-02-27T06:01:28.506Z,7.12
2019-02-27T06:02:33.563Z,5.95
2019-02-27T06:03:38.582Z,6.95
2019-02-27T06:04:43.772Z,7.47
2019-02-27T06:05:49.795Z,6.03
2019-02-27T06:06:55.052Z,6.75
2019-02-27T06:08:02.341Z,6.60
2019-02-27T06:09:09.923Z,7.03
2019-02-27T06:10:19.736Z,6.30
2019-02-27T06:11:21.823Z,7.00
2019-02-27T06:12:26.939Z,6.42
2019-02-27T06:13:32.477Z,6.78
2019-02-27T06:14:37.996Z,6.50
2019-02-27T06:15:43.387Z,5.45
2019-02-27T06:16:48.845Z,6.80
2019-02-27T06:17:55.326Z,6.33
2019-02-27T06:19:00.405Z,6.65
2019-02-27T06:20:07.895Z,7.55
2019-02-27T06:21:13.345Z,6.72
2019-02-27T06:22:19.960Z,6.33
2019-02-27T06:23:25.548Z,7.30
2019-02-27T06:24:30.551Z,7.17
2019-02-27T06:25:35.662Z,6.92
2019-02-27T06:26:40.799Z,7.12
2019-02-27T06:27:45.931Z,7.08
2019-02-27T06:28:51.004Z,8.00
2019-02-27T06:29:57.096Z,8.68
2019-02-27T06:31:03.197Z,8.50
2019-02-27T06:32:11.910Z,9.18
2019-02-27T06:33:15.332Z,7.67
2019-02-27T06:34:22.388Z,7.45
2019-02-27T06:35:27.513Z,7.80
2019-02-27T06:36:32.766Z,7.47
2019-02-27T06:37:37.923Z,6.83
2019-02-27T06:38:43.085Z,7.53
2019-02-27T06:39:48.178Z,6.55
2019-02-27T06:40:53.647Z,6.53
2019-02-27T06:41:59.034Z,6.55
2019-02-27T06:43:04.264Z,6.85
2019-02-27T06:44:10.008Z,6.80
2019-02-27T06:45:15.581Z,6.83
2019-02-27T06:46:20.780Z,7.10
2019-02-27T06:47:26.169Z,6.37
2019-02-27T06:48:31.368Z,6.90
2019-02-27T06:49:36.503Z,6.25
2019-02-27T06:50:42.738Z,7.62
2019-02-27T06:51:47.896Z,7.40
2019-02-27T06:52:52.963Z,7.10
2019-02-27T06:53:58.089Z,7.15
2019-02-27T06:55:03.707Z,7.83
2019-02-27T06:56:09.821Z,6.10
2019-02-27T06:57:14.828Z,8.00
2019-02-27T06:58:19.934Z,7.72
2019-02-27T06:59:25.740Z,7.67
2019-02-27T07:00:35.770Z,7.35
2019-02-27T07:01:38.096Z,7.33
2019-02-27T07:02:43.498Z,7.80
2019-02-27T07:03:49.203Z,7.55
2019-02-27T07:04:54.479Z,8.50
2019-02-27T07:05:59.752Z,8.03
2019-02-27T07:07:04.897Z,9.33
2019-02-27T07:08:10.003Z,8.40
2019-02-27T07:09:15.199Z,7.97
2019-02-27T07:10:20.679Z,7.00
2019-02-27T07:11:26.238Z,7.50
2019-02-27T07:12:31.394Z,8.40
2019-02-27T07:13:36.862Z,7.75
2019-02-27T07:14:42.140Z,8.90
2019-02-27T07:15:48.278Z,8.38
2019-02-27T07:16:57.176Z,9.48
2019-02-27T07:18:03.482Z,7.70
2019-02-27T07:19:07.703Z,8.75
2019-02-27T07:20:13.756Z,8.00
2019-02-27T07:21:18.879Z,7.72
2019-02-27T07:22:24.075Z,6.97
2019-02-27T07:23:29.225Z,7.85
2019-02-27T07:24:34.443Z,7.45
2019-02-27T07:25:42.871Z,8.60
2019-02-27T07:26:50.273Z,8.60
2019-02-27T07:27:57.047Z,7.97
2019-02-27T07:29:02.229Z,7.95
2019-02-27T07:30:09.865Z,7.83
2019-02-27T07:31:17.545Z,9.70
2019-02-27T07:32:22.197Z,8.83
2019-02-27T07:33:27.681Z,9.25
2019-02-27T07:34:34.596Z,7.72
2019-02-27T07:35:40.092Z,7.72
2019-02-27T07:36:45.682Z,8.68
2019-02-27T07:37:50.814Z,8.35
2019-02-27T07:38:57.547Z,8.18
2019-02-27T07:40:07.930Z,7.45
2019-02-27T07:41:10.630Z,10.90
2019-02-27T07:42:15.629Z,9.03
2019-02-27T07:43:20.661Z,8.58
2019-02-27T07:44:26.565Z,9.85
2019-02-27T07:45:31.613Z,8.33
2019-02-27T07:46:36.708Z,8.53
2019-02-27T07:47:41.962Z,9.15
2019-02-27T07:48:47.160Z,9.63
2019-02-27T07:49:52.282Z,8.38
2019-02-27T07:50:57.605Z,7.80
2019-02-27T07:52:02.741Z,8.40
2019-02-27T07:53:07.974Z,8.30
2019-02-27T07:54:13.154Z,8.70
2019-02-27T07:55:21.901Z,9.70
2019-02-27T07:56:25.147Z,7.70
2019-02-27T07:57:30.455Z,8.80
2019-02-27T07:58:36.426Z,8.53
2019-02-27T07:59:41.623Z,8.85
2019-02-27T08:00:47.118Z,9.48
2019-02-27T08:01:53.989Z,8.15
2019-02-27T08:02:58.966Z,8.85
2019-02-27T08:04:04.041Z,8.43
2019-02-27T08:05:09.146Z,8.83
2019-02-27T08:06:14.419Z,8.48
2019-02-27T08:07:19.529Z,8.18
2019-02-27T08:08:24.648Z,8.43
2019-02-27T08:09:30.684Z,9.78
2019-02-27T08:10:36.902Z,8.40
2019-02-27T08:11:47.115Z,8.53
2019-02-27T08:12:49.637Z,9.25
2019-02-27T08:13:54.729Z,8.23
2019-02-27T08:14:59.960Z,8.93
2019-02-27T08:16:05.097Z,8.33
2019-02-27T08:17:17.389Z,9.08
2019-02-27T08:18:16.946Z,8.73
2019-02-27T08:19:22.062Z,8.53
2019-02-27T08:20:27.887Z,9.75
2019-02-27T08:21:33.061Z,7.80
2019-02-27T08:22:38.075Z,9.48
2019-02-27T08:23:43.232Z,9.33
2019-02-27T08:24:48.671Z,8.88
2019-02-27T08:25:53.806Z,8.00
2019-02-27T08:26:59.411Z,8.95
2019-02-27T08:28:04.864Z,8.25
2019-02-27T08:29:10.213Z,9.88
2019-02-27T08:30:18.966Z,10.95
2019-02-27T08:31:27.894Z,8.93
2019-02-27T08:32:31.949Z,9.23
2019-02-27T08:33:37.884Z,10.72
2019-02-27T08:34:43.297Z,9.73
2019-02-27T08:35:48.786Z,9.15
2019-02-27T08:36:53.930Z,10.68
2019-02-27T08:38:02.817Z,9.25
2019-02-27T08:39:07.401Z,9.30
2019-02-27T08:40:13.152Z,10.00
2019-02-27T08:41:18.289Z,10.70
2019-02-27T08:42:23.372Z,10.45
2019-02-27T08:43:30.438Z,11.33
2019-02-27T08:44:35.985Z,9.98
2019-02-27T08:45:41.153Z,9.80
2019-02-27T08:46:46.467Z,10.10
2019-02-27T08:47:51.513Z,10.00
2019-02-27T08:48:56.610Z,9.98
2019-02-27T08:50:02.119Z,8.93
2019-02-27T08:51:08.763Z,10.45
2019-02-27T08:52:16.245Z,10.05
2019-02-27T08:53:26.003Z,10.18
2019-02-27T08:54:32.240Z,10.23
2019-02-27T08:55:39.006Z,9.60
2019-02-27T08:56:44.027Z,9.83
2019-02-27T08:57:50.031Z,10.25
2019-02-27T08:58:55.521Z,10.15
2019-02-27T09:00:00.636Z,9.05
2019-02-27T09:01:07.451Z,10.43
2019-02-27T09:02:13.015Z,9.28
2019-02-27T09:03:20.526Z,10.30
2019-02-27T09:04:25.316Z,10.63
2019-02-27T09:05:30.581Z,9.40
2019-02-27T09:06:35.642Z,10.93
2019-02-27T09:07:42.935Z,11.12
2019-02-27T09:08:48.443Z,10.72
2019-02-27T09:09:55.203Z,10.43
2019-02-27T09:11:05.366Z,10.60
2019-02-27T09:12:13.148Z,9.90
2019-02-27T09:13:15.524Z,9.98
2019-02-27T09:14:20.614Z,9.30
2019-02-27T09:15:26.048Z,10.93
2019-02-27T09:16:31.163Z,9.45
2019-02-27T09:17:36.329Z,10.50
2019-02-27T09:18:41.405Z,9.68
2019-02-27T09:19:46.995Z,9.28
2019-02-27T09:20:53.418Z,11.85
2019-02-27T09:21:59.925Z,10.35
2019-02-27T09:23:05.871Z,9.48
2019-02-27T09:24:11.238Z,10.40
2019-02-27T09:25:16.611Z,11.03
2019-02-27T09:26:22.064Z,9.93
2019-02-27T09:27:27.417Z,10.28
2019-02-27T09:28:32.782Z,13.58
2019-02-27T09:29:37.874Z,10.23
2019-02-27T09:30:43.294Z,11.20
2019-02-27T09:31:51.074Z,11.20
2019-02-27T09:32:55.236Z,10.25
2019-02-27T09:34:00.600Z,9.75
2019-02-27T09:35:06.217Z,9.60
2019-02-27T09:36:11.325Z,10.13
2019-02-27T09:37:17.744Z,10.35
2019-02-27T09:38:24.350Z,10.65
2019-02-27T09:39:31.168Z,10.60
2019-02-27T09:40:38.905Z,9.50
2019-02-27T09:41:46.983Z,9.55
2019-02-27T09:42:53.061Z,9.73
2019-02-27T09:43:58.626Z,10.68
2019-02-27T09:45:08.202Z,9.68
2019-02-27T09:46:12.441Z,9.43
2019-02-27T09:47:17.527Z,9.08
2019-02-27T09:48:22.980Z,9.58
2019-02-27T09:49:28.210Z,10.43
2019-02-27T09:50:35.238Z,11.18
2019-02-27T09:51:40.443Z,9.30
2019-02-27T09:52:45.606Z,9.28
2019-02-27T09:53:52.832Z,10.30
2019-02-27T09:54:58.186Z,8.90
2019-02-27T09:56:03.765Z,9.90
2019-02-27T09:57:08.964Z,11.38
2019-02-27T09:58:14.164Z,11.20
2019-02-27T09:59:19.793Z,10.95
2019-02-27T10:00:30.951Z,11.20
2019-02-27T10:01:36.145Z,10.35
2019-02-27T10:02:43.121Z,9.90
2019-02-27T10:03:48.423Z,10.05
2019-02-27T10:04:53.706Z,10.15
2019-02-27T10:05:58.804Z,10.80
2019-02-27T10:07:03.943Z,9.43
2019-02-27T10:08:10.527Z,10.20
2019-02-27T10:09:20.382Z,10.68
2019-02-27T10:10:25.606Z,10.60
2019-02-27T10:11:30.940Z,8.95
2019-02-27T10:12:36.233Z,10.68
2019-02-27T10:13:41.357Z,10.88
2019-02-27T10:14:47.886Z,11.28
2019-02-27T10:15:53.296Z,9.98
2019-02-27T10:16:58.430Z,10.53
2019-02-27T10:18:03.935Z,10.20
2019-02-27T10:19:08.943Z,9.45
2019-02-27T10:20:14.302Z,11.60
2019-02-27T10:21:20.045Z,12.28
2019-02-27T10:22:25.276Z,10.82
2019-02-27T10:23:31.272Z,11.43
2019-02-27T10:24:37.599Z,11.97
2019-02-27T10:25:43.489Z,11.30
2019-02-27T10:26:49.271Z,10.80
2019-02-27T10:27:54.321Z,10.78
2019-02-27T10:28:59.483Z,11.10
2019-02-27T10:30:11.323Z,11.03
2019-02-27T10:31:12.759Z,11.15
2019-02-27T10:32:17.745Z,10.55
2019-02-27T10:33:22.882Z,11.43
2019-02-27T10:34:27.999Z,14.50
2019-02-27T10:35:34.986Z,12.13
2019-02-27T10:36:40.126Z,14.45
2019-02-27T10:37:50.273Z,14.28
2019-02-27T10:38:52.512Z,11.53
2019-02-27T10:39:57.634Z,11.70
2019-02-27T10:41:02.796Z,10.50
2019-02-27T10:42:08.337Z,11.80
2019-02-27T10:43:13.502Z,10.55
2019-02-27T10:44:18.507Z,11.40
2019-02-27T10:45:23.640Z,12.00
2019-02-27T10:46:28.833Z,11.08
2019-02-27T10:47:36.539Z,10.32
2019-02-27T10:48:41.269Z,9.45
2019-02-27T10:49:46.394Z,10.13
2019-02-27T10:50:51.492Z,9.73
2019-02-27T10:51:56.694Z,9.98
2019-02-27T10:53:02.319Z,8.88
2019-02-27T10:54:07.498Z,10.03
2019-02-27T10:55:14.249Z,9.85
2019-02-27T10:56:21.640Z,10.98
2019-02-27T10:57:31.432Z,9.33
2019-02-27T10:58:53.381Z,10.50
2019-02-27T10:59:58.796Z,10.10
2019-02-27T11:01:04.467Z,10.43
2019-02-27T11:02:12.381Z,8.75
2019-02-27T11:03:16.582Z,10.20
2019-02-27T11:04:22.021Z,9.03
2019-02-27T11:05:29.042Z,10.05
2019-02-27T11:06:37.652Z,9.65
2019-02-27T11:07:41.142Z,10.03
2019-02-27T11:08:46.298Z,11.00
2019-02-27T11:09:51.482Z,11.45
2019-02-27T11:10:57.128Z,10.25
2019-02-27T11:12:02.302Z,11.45
2019-02-27T11:13:07.740Z,11.03
2019-02-27T11:14:13.103Z,11.53
2019-02-27T11:15:18.818Z,9.93
2019-02-27T11:16:23.976Z,10.60
2019-02-27T11:17:29.170Z,9.90
2019-02-27T11:18:34.379Z,11.18
2019-02-27T11:19:39.564Z,9.93
2019-02-27T11:20:44.910Z,9.35
2019-02-27T11:21:50.309Z,10.10
2019-02-27T11:22:55.364Z,10.10
2019-02-27T11:24:00.596Z,10.18
2019-02-27T11:25:07.174Z,10.03
2019-02-27T11:26:12.419Z,9.58
2019-02-27T11:27:17.951Z,10.28
2019-02-27T11:28:23.123Z,10.08
2019-02-27T11:29:28.371Z,10.23
2019-02-27T11:30:36.847Z,11.03
2019-02-27T11:31:45.183Z,12.93
2019-02-27T11:32:49.151Z,10.75
2019-02-27T11:33:54.683Z,10.82
2019-02-27T11:35:00.269Z,10.25
2019-02-27T11:36:06.337Z,9.68
2019-02-27T11:37:13.867Z,10.05
2019-02-27T11:38:18.538Z,10.00
2019-02-27T11:39:23.765Z,9.75
2019-02-27T11:40:29.411Z,10.70
2019-02-27T11:41:34.640Z,9.55
2019-02-27T11:42:39.804Z,9.70
2019-02-27T11:43:44.903Z,8.68
2019-02-27T11:44:50.252Z,10.30
2019-02-27T11:45:58.170Z,9.40
2019-02-27T11:47:03.895Z,9.50
2019-02-27T11:48:09.071Z,9.38
2019-02-27T11:49:14.139Z,8.88
2019-02-27T11:50:19.212Z,8.70
2019-02-27T11:51:24.618Z,9.68
2019-02-27T11:52:29.617Z,9.30
2019-02-27T11:53:36.021Z,9.08
2019-02-27T11:54:43.329Z,10.68
2019-02-27T11:55:48.874Z,10.23
2019-02-27T11:56:56.099Z,9.45
2019-02-27T11:58:04.563Z,8.95
2019-02-27T11:59:10.292Z,8.30
2019-02-27T12:00:21.021Z,10.05
2019-02-27T12:01:26.787Z,8.40
2019-02-27T12:02:37.065Z,10.50
2019-02-27T12:03:39.460Z,8.88
2019-02-27T12:04:44.974Z,8.30
2019-02-27T12:05:50.066Z,8.90
2019-02-27T12:06:55.110Z,11.43
2019-02-27T12:08:00.321Z,11.33
2019-02-27T12:09:07.051Z,10.38
2019-02-27T12:10:16.019Z,9.05
2019-02-27T12:11:21.263Z,9.58
2019-02-27T12:12:26.436Z,11.57
2019-02-27T12:13:32.302Z,10.03
2019-02-27T12:14:38.446Z,9.20
2019-02-27T12:15:44.264Z,8.13
2019-02-27T12:16:51.705Z,8.53
2019-02-27T12:17:59.867Z,9.88
2019-02-27T12:19:03.443Z,10.20
2019-02-27T12:20:12.114Z,8.50
2019-02-27T12:21:17.521Z,9.83
2019-02-27T12:22:22.624Z,9.05
2019-02-27T12:23:27.819Z,9.53
2019-02-27T12:24:33.018Z,8.25
2019-02-27T12:25:38.756Z,9.50
2019-02-27T12:26:43.856Z,8.75
2019-02-27T12:27:51.896Z,9.73
2019-02-27T12:28:57.062Z,9.05
2019-02-27T12:30:03.004Z,8.10
2019-02-27T12:31:10.957Z,8.50
2019-02-27T12:32:19.309Z,9.00
2019-02-27T12:33:23.864Z,9.75
2019-02-27T12:34:28.979Z,10.68
2019-02-27T12:35:34.446Z,9.45
2019-02-27T12:36:39.654Z,9.80
2019-02-27T12:37:46.372Z,12.45
2019-02-27T12:38:51.850Z,13.32
2019-02-27T12:39:57.216Z,12.03
2019-02-27T12:41:02.420Z,12.85
2019-02-27T12:42:07.942Z,12.35
2019-02-27T12:43:17.386Z,11.22
2019-02-27T12:44:20.490Z,10.35
2019-02-27T12:45:26.791Z,8.95
2019-02-27T12:46:34.218Z,9.43
2019-02-27T12:47:40.658Z,9.90
2019-02-27T12:48:46.571Z,10.78
2019-02-27T12:49:54.163Z,8.73
2019-02-27T12:51:03.409Z,9.70
2019-02-27T12:52:05.900Z,9.70
2019-02-27T12:53:13.891Z,8.98
2019-02-27T12:54:19.039Z,8.78
2019-02-27T12:55:24.398Z,8.95
2019-02-27T12:56:29.588Z,8.50
2019-02-27T12:57:34.911Z,8.25
2019-02-27T12:58:40.017Z,8.30
2019-02-27T12:59:45.347Z,8.83
2019-02-27T13:00:50.456Z,8.60
2019-02-27T13:01:56.048Z,9.00
2019-02-27T13:03:01.506Z,8.33
2019-02-27T13:04:06.941Z,8.08
2019-02-27T13:05:13.318Z,9.73
2019-02-27T13:06:18.803Z,8.70
2019-02-27T13:07:23.998Z,8.80
2019-02-27T13:08:29.132Z,9.28
2019-02-27T13:09:34.879Z,8.90
2019-02-27T13:10:40.025Z,8.65
2019-02-27T13:11:45.232Z,8.50
2019-02-27T13:12:51.899Z,9.18
2019-02-27T13:13:59.692Z,9.75
2019-02-27T13:15:06.741Z,8.73
2019-02-27T13:16:14.300Z,8.78
2019-02-27T13:17:21.449Z,8.68
2019-02-27T13:18:25.249Z,8.45
2019-02-27T13:19:31.522Z,8.35
2019-02-27T13:20:36.971Z,8.38
2019-02-27T13:21:42.541Z,12.73
2019-02-27T13:22:47.666Z,9.53
2019-02-27T13:23:53.166Z,8.88
2019-02-27T13:24:58.323Z,11.08
2019-02-27T13:26:03.686Z,9.40
2019-02-27T13:27:09.252Z,9.05
2019-02-27T13:28:15.682Z,9.03
2019-02-27T13:29:21.591Z,8.85
2019-02-27T13:30:27.273Z,9.60
2019-02-27T13:31:32.659Z,9.43
2019-02-27T13:32:38.172Z,8.80
2019-02-27T13:33:43.211Z,9.25
2019-02-27T13:34:49.104Z,8.28
2019-02-27T13:35:56.742Z,8.60
2019-02-27T13:37:01.319Z,7.90
2019-02-27T13:38:06.486Z,8.33
2019-02-27T13:39:11.579Z,9.10
2019-02-27T13:40:17.932Z,10.32
2019-02-27T13:41:23.809Z,10.78
2019-02-27T13:42:29.393Z,9.18
2019-02-27T13:43:34.607Z,10.70
2019-02-27T13:44:39.779Z,10.28
2019-02-27T13:45:47.388Z,11.18
2019-02-27T13:46:54.556Z,11.33
2019-02-27T13:47:59.208Z,12.40
2019-02-27T13:49:04.560Z,11.35
2019-02-27T13:50:09.837Z,10.68
2019-02-27T13:51:15.345Z,8.95
2019-02-27T13:52:20.415Z,10.48
2019-02-27T13:53:26.641Z,10.00
2019-02-27T13:54:34.838Z,10.50
2019-02-27T13:55:38.861Z,8.35
2019-02-27T13:56:44.112Z,12.28
2019-02-27T13:57:49.220Z,10.50
2019-02-27T13:58:54.398Z,9.23
2019-02-27T14:00:00.273Z,12.60
2019-02-27T14:01:06.945Z,10.82
2019-02-27T14:02:12.403Z,10.25
2019-02-27T14:03:17.958Z,12.50
2019-02-27T14:04:22.968Z,27.82
2019-02-27T14:05:29.538Z,15.05
2019-02-27T14:06:34.820Z,12.90
2019-02-27T14:07:40.579Z,9.80
2019-02-27T14:08:45.765Z,9.55
2019-02-27T14:09:50.877Z,8.38
2019-02-27T14:10:56.143Z,7.60
2019-02-27T14:12:01.323Z,8.80
2019-02-27T14:13:09.698Z,6.55
2019-02-27T14:14:15.067Z,8.35
2019-02-27T14:15:20.436Z,8.28
2019-02-27T14:16:25.738Z,8.15
2019-02-27T14:17:31.121Z,7.97
2019-02-27T14:18:37.725Z,7.65
2019-02-27T14:19:42.928Z,6.53
2019-02-27T14:20:48.059Z,7.12
2019-02-27T14:21:53.186Z,7.78
2019-02-27T14:22:58.564Z,6.62
2019-02-27T14:24:03.933Z,7.75
2019-02-27T14:25:10.652Z,7.28
2019-02-27T14:26:15.832Z,8.05
2019-02-27T14:27:21.165Z,8.40
2019-02-27T14:28:26.323Z,8.60
2019-02-27T14:29:31.824Z,7.97
2019-02-27T14:30:39.731Z,8.65
2019-02-27T14:31:44.819Z,8.70
2019-02-27T14:32:49.902Z,7.80
2019-02-27T14:33:55.211Z,11.00
2019-02-27T14:35:00.740Z,9.18
2019-02-27T14:36:08.487Z,9.43
2019-02-27T14:37:16.363Z,14.20
2019-02-27T14:38:21.852Z,13.20
2019-02-27T14:39:29.676Z,13.00
2019-02-27T14:40:37.793Z,9.73
2019-02-27T14:41:42.387Z,8.18
2019-02-27T14:42:47.640Z,7.85
2019-02-27T14:43:52.932Z,8.15
2019-02-27T14:44:58.698Z,10.80
2019-02-27T14:46:03.887Z,10.00
2019-02-27T14:47:09.352Z,7.60
2019-02-27T14:48:14.431Z,7.58
2019-02-27T14:49:19.538Z,7.40
2019-02-27T14:50:24.997Z,6.95
2019-02-27T14:51:30.574Z,7.70
2019-02-27T14:52:35.562Z,8.03
2019-02-27T14:53:40.599Z,7.33
2019-02-27T14:54:46.300Z,5.83
2019-02-27T14:55:51.599Z,7.90
2019-02-27T14:56:58.376Z,8.38
2019-02-27T14:58:03.638Z,7.50
2019-02-27T14:59:09.328Z,8.63
2019-02-27T15:00:25.673Z,7.10
2019-02-27T15:01:30.890Z,7.50
2019-02-27T15:02:36.352Z,6.60
2019-02-27T15:03:41.514Z,6.50
2019-02-27T15:04:46.814Z,6.33
2019-02-27T15:05:52.635Z,6.53
2019-02-27T15:06:57.963Z,6.55
2019-02-27T15:08:03.305Z,6.50